Time;durP1;ratioP1;P1;durP2;ratioP2;P2;SDS_P1;SDS_P2;PMS_P1;PMS_P2;Temp;Humidity;BMP_temperature;BMP_pressure;BME280_temperature;BME280_humidity;BME280_pressure;Samples;Min_cycle;Max_cycle;Signal;HPM_P1;HPM_P2
2022/07/05 00:00:31;;;;;;;30.90;17.83;;;;;;;30.09;67.79;100605.94;5039422;28;70466;-33
2022/07/05 00:03:02;;;;;;;30.77;16.42;;;;;;;30.15;67.52;100607.75;5036272;28;66664;-34
2022/07/05 00:05:33;;;;;;;21.73;14.43;;;;;;;30.33;66.47;100619.69;5037462;28;70151;-34
2022/07/05 00:08:05;;;;;;;19.77;11.87;;;;;;;30.41;66.41;100622.09;5041277;28;65155;-34
2022/07/05 00:10:37;;;;;;;28.45;14.23;;;;;;;30.30;72.43;100614.72;5039075;28;69535;-33
2022/07/05 00:13:08;;;;;;;26.37;12.60;;;;;;;30.44;72.34;100636.00;5028484;28;65885;-33
2022/07/05 00:15:40;;;;;;;17.45;12.70;;;;;;;30.43;73.01;100641.66;5038633;28;69661;-32
2022/07/05 00:18:11;;;;;;;15.55;12.75;;;;;;;30.39;73.16;100638.56;5037882;28;66935;-33
2022/07/05 00:20:42;;;;;;;14.65;11.50;;;;;;;29.93;73.18;100571.34;5038628;28;70504;-33
2022/07/05 00:23:13;;;;;;;21.02;11.38;;;;;;;30.36;73.51;100646.28;5035042;28;67124;-34
2022/07/05 00:25:44;;;;;;;13.30;11.57;;;;;;;30.05;73.35;100599.31;5039215;28;71187;-35
2022/07/05 00:28:15;;;;;;;12.75;9.32;;;;;;;30.38;71.21;100646.91;5037737;28;65384;-32
2022/07/05 00:30:46;;;;;;;9.90;8.60;;;;;;;30.48;70.38;100655.34;5036992;28;70306;-32
2022/07/05 00:33:17;;;;;;;10.60;8.63;;;;;;;30.50;69.73;100654.06;5040164;28;66074;-33
2022/07/05 00:35:48;;;;;;;8.82;8.13;;;;;;;30.60;68.97;100667.09;5040048;28;70280;-33
2022/07/05 00:38:19;;;;;;;14.98;8.45;;;;;;;30.71;69.00;100666.34;5039396;28;65228;-33
2022/07/05 00:40:50;;;;;;;10.43;9.27;;;;;;;30.78;69.09;100663.56;5039897;28;71717;-34
2022/07/05 00:43:21;;;;;;;12.40;9.27;;;;;;;30.80;69.49;100657.97;5039533;28;65859;-34
2022/07/05 00:45:52;;;;;;;8.53;7.80;;;;;;;30.87;68.87;100670.38;5021140;28;69195;-34
2022/07/05 00:48:23;;;;;;;8.02;7.32;;;;;;;30.93;68.77;100674.06;5040498;28;66258;-34
2022/07/05 00:50:54;;;;;;;11.63;8.80;;;;;;;30.97;68.60;100675.25;5027754;28;70118;-32
2022/07/05 00:53:26;;;;;;;9.27;8.40;;;;;;;31.00;68.38;100674.81;5021154;28;65838;-33
2022/07/05 00:55:57;;;;;;;9.10;8.20;;;;;;;31.06;68.58;100668.47;5039713;28;70385;-35
2022/07/05 00:58:30;;;;;;;9.35;7.68;;;;;;;30.95;67.96;100661.13;5026679;28;65596;-34
2022/07/05 01:01:03;;;;;;;8.65;7.38;;;;;;;30.91;67.90;100638.25;5037087;28;71028;-34
2022/07/05 01:03:34;;;;;;;8.75;8.05;;;;;;;31.08;67.73;100665.56;5034328;28;65134;-35
2022/07/05 01:06:07;;;;;;;8.50;7.10;;;;;;;31.06;67.33;100668.47;5015964;28;68927;-33
2022/07/05 01:08:41;;;;;;;8.55;7.57;;;;;;;31.15;67.46;100667.16;5036925;28;66322;-35
2022/07/05 01:11:14;;;;;;;7.88;7.03;;;;;;;31.03;66.98;100644.56;5039652;28;70200;-34
2022/07/05 01:13:45;;;;;;;8.40;7.43;;;;;;;31.29;66.97;100680.53;5038356;28;66018;-33
2022/07/05 01:16:16;;;;;;;9.80;7.00;;;;;;;31.30;66.93;100679.47;5021493;28;69815;-33
2022/07/05 01:18:47;;;;;;;8.07;7.22;;;;;;;31.30;66.72;100674.03;5016151;28;64822;-33
2022/07/05 01:21:23;;;;;;;8.18;7.45;;;;;;;31.26;66.67;100662.84;5041155;28;70051;-33
2022/07/05 01:23:54;;;;;;;7.20;6.60;;;;;;;31.38;66.72;100673.75;5024786;28;66178;-33
2022/07/05 01:26:25;;;;;;;7.50;6.75;;;;;;;31.30;66.28;100668.63;5044213;28;69830;-33
2022/07/05 01:28:56;;;;;;;7.43;6.82;;;;;;;31.39;66.51;100683.53;5048569;28;67280;-33
2022/07/05 01:31:27;;;;;;;6.97;6.30;;;;;;;31.46;66.33;100684.28;5041033;28;70101;-32
2022/07/05 01:33:59;;;;;;;9.23;6.78;;;;;;;31.49;66.29;100683.81;5040687;28;65365;-33
2022/07/05 01:36:30;;;;;;;6.72;6.22;;;;;;;31.51;65.92;100675.44;5043017;28;69790;-32
2022/07/05 01:39:05;;;;;;;10.00;7.32;;;;;;;31.54;66.16;100686.69;5051481;28;64994;-33
2022/07/05 01:41:36;;;;;;;6.47;5.97;;;;;;;31.56;65.90;100676.41;5024026;28;69725;-33
2022/07/05 01:44:07;;;;;;;6.90;6.40;;;;;;;31.57;65.89;100680.81;5033160;28;65872;-32
2022/07/05 01:46:40;;;;;;;6.72;6.20;;;;;;;31.43;65.67;100649.50;5032274;28;68942;-32
2022/07/05 01:49:16;;;;;;;7.38;6.65;;;;;;;31.20;65.33;100608.72;5031328;28;66737;-32
2022/07/05 01:52:01;;;;;;;6.50;5.90;;;;;;;30.71;65.69;100525.56;5022998;28;70289;-33
2022/07/05 01:54:32;;;;;;;6.65;6.10;;;;;;;31.67;65.77;100674.81;5022717;28;66681;-32
2022/07/05 01:57:07;;;;;;;7.47;6.27;;;;;;;31.71;65.44;100672.47;5041873;28;69711;-32
2022/07/05 01:59:39;;;;;;;8.10;6.10;;;;;;;31.73;65.37;100678.47;5023522;28;65740;-32
2022/07/05 02:02:10;;;;;;;8.63;5.93;;;;;;;31.74;65.45;100674.72;5041766;28;69937;-32
2022/07/05 02:04:44;;;;;;;7.28;5.72;;;;;;;31.77;65.12;100666.13;5048830;28;66402;-33
2022/07/05 02:07:16;;;;;;;6.63;6.05;;;;;;;31.80;65.11;100674.63;5005873;28;69909;-34
2022/07/05 02:09:53;;;;;;;6.57;5.53;;;;;;;31.77;64.78;100664.25;5026141;28;66193;-32
2022/07/05 02:12:24;;;;;;;8.15;5.88;;;;;;;31.84;64.87;100650.56;5023859;28;69949;-33
2022/07/05 02:14:55;;;;;;;6.73;6.13;;;;;;;31.87;64.89;100660.94;5024583;28;65332;-33
2022/07/05 02:17:26;;;;;;;11.90;6.03;;;;;;;31.91;64.74;100658.63;5023697;28;69944;-32
2022/07/05 02:19:57;;;;;;;9.73;5.90;;;;;;;31.92;64.81;100655.69;5023125;28;66556;-33
2022/07/05 02:22:32;;;;;;;6.00;5.28;;;;;;;31.97;64.76;100661.25;5008498;28;70509;-33
2022/07/05 02:25:03;;;;;;;7.13;5.50;;;;;;;31.97;64.65;100652.28;5039602;28;65984;-33
2022/07/05 02:27:34;;;;;;;6.80;5.40;;;;;;;31.99;64.44;100656.41;5015753;28;68985;-33
2022/07/05 02:30:07;;;;;;;5.65;5.15;;;;;;;32.02;64.28;100661.38;5018662;28;66662;-33
2022/07/05 02:32:42;;;;;;;6.28;5.55;;;;;;;32.05;64.29;100660.09;5040307;28;69304;-33
2022/07/05 02:35:13;;;;;;;6.32;5.50;;;;;;;32.08;63.96;100664.22;5040998;28;65301;-32
2022/07/05 02:37:44;;;;;;;7.63;5.43;;;;;;;32.07;64.31;100662.53;5042721;28;69147;-33
2022/07/05 02:40:15;;;;;;;5.93;5.03;;;;;;;32.10;64.08;100667.53;5041054;28;66070;-33
2022/07/05 02:42:50;;;;;;;5.75;5.20;;;;;;;32.15;64.14;100662.22;5040822;28;69358;-33
2022/07/05 02:45:21;;;;;;;10.18;5.35;;;;;;;32.15;64.13;100670.34;5021749;28;66883;-34
2022/07/05 02:47:58;;;;;;;6.18;5.47;;;;;;;32.19;64.04;100668.84;5025194;28;70941;-33
2022/07/05 02:50:32;;;;;;;5.38;4.88;;;;;;;32.21;64.03;100674.88;5020610;28;66891;-32
2022/07/05 02:53:05;;;;;;;6.03;5.30;;;;;;;32.22;64.13;100673.78;5022314;28;69242;-34
2022/07/05 02:55:37;;;;;;;;;;;;;;;31.91;64.66;100675.75;5023160;28;66272;-34
2022/07/05 02:58:08;;;;;;;7.00;5.20;;;;;;;32.12;63.85;100649.09;5040311;28;68793;-33
2022/07/05 03:00:39;;;;;;;7.15;5.10;;;;;;;32.24;63.47;100672.50;5032768;28;66012;-33
2022/07/05 03:03:11;;;;;;;5.03;4.53;;;;;;;32.24;63.55;100664.34;5022775;28;69499;-34
2022/07/05 03:05:42;;;;;;;5.60;4.50;;;;;;;32.20;63.31;100651.47;5022714;28;66072;-33
2022/07/05 03:08:13;;;;;;;6.63;4.85;;;;;;;32.26;63.54;100661.38;5015205;28;69189;-36
2022/07/05 03:10:44;;;;;;;7.75;4.70;;;;;;;32.31;63.15;100672.38;5036955;28;66177;-35
2022/07/05 03:13:16;;;;;;;5.60;5.03;;;;;;;32.35;63.23;100660.00;5033795;28;69090;-35
2022/07/05 03:15:47;;;;;;;5.35;4.82;;;;;;;32.36;63.05;100667.06;5039188;28;66408;-35
2022/07/05 03:18:21;;;;;;;5.57;4.50;;;;;;;32.30;63.07;100646.31;5036672;28;70089;-35
2022/07/05 03:20:53;;;;;;;7.50;4.13;;;;;;;32.40;63.07;100654.69;5028083;28;66136;-34
2022/07/05 03:23:27;;;;;;;6.95;4.38;;;;;;;32.38;63.03;100643.25;5025749;28;69937;-34
2022/07/05 03:25:59;;;;;;;4.72;3.95;;;;;;;32.45;62.98;100643.09;5026369;28;66493;-35
2022/07/05 03:28:31;;;;;;;6.32;4.45;;;;;;;32.49;62.72;100650.59;5020650;28;69324;-35
2022/07/05 03:31:03;;;;;;;7.72;4.00;;;;;;;32.46;62.80;100637.47;4989236;28;65739;-35
2022/07/05 03:33:39;;;;;;;5.18;3.67;;;;;;;32.54;62.77;100635.47;4999176;28;70386;-34
2022/07/05 03:36:12;;;;;;;5.28;3.95;;;;;;;32.55;62.55;100637.13;5000022;28;66584;-34
2022/07/05 03:38:45;;;;;;;5.20;3.95;;;;;;;32.59;62.63;100638.28;5000119;28;70143;-34
2022/07/05 03:41:16;;;;;;;6.10;3.95;;;;;;;32.59;62.38;100649.16;4994577;28;66479;-34
2022/07/05 03:43:48;;;;;;;8.23;4.38;;;;;;;32.61;62.37;100637.00;4974677;28;69962;-35
2022/07/05 03:46:19;;;;;;;4.27;3.80;;;;;;;32.62;62.42;100632.38;4999646;28;66082;-34
2022/07/05 03:48:50;;;;;;;6.68;4.47;;;;;;;32.64;62.40;100631.06;4981922;28;70002;-35
2022/07/05 03:51:22;;;;;;;5.13;3.50;;;;;;;32.64;62.22;100635.69;4987424;28;66116;-35
2022/07/05 03:53:54;;;;;;;6.07;3.58;;;;;;;32.67;62.24;100636.03;4999629;28;69714;-35
2022/07/05 03:56:26;;;;;;;5.05;3.75;;;;;;;32.66;62.25;100623.53;4982460;28;65047;-35
2022/07/05 03:59:02;;;;;;;5.18;3.92;;;;;;;32.62;62.30;100599.78;5000566;28;69882;-35
2022/07/05 04:01:33;;;;;;;4.65;3.83;;;;;;;32.62;62.11;100610.66;4999927;28;65637;-35
2022/07/05 04:04:05;;;;;;;7.00;3.30;;;;;;;32.68;62.20;100612.41;4996844;28;69286;-34
2022/07/05 04:06:36;;;;;;;4.17;3.77;;;;;;;32.73;62.17;100615.25;4983838;28;65575;-34
2022/07/05 04:09:07;;;;;;;7.80;3.70;;;;;;;32.71;62.23;100604.63;4994628;28;70433;-35
2022/07/05 04:11:39;;;;;;;4.18;3.25;;;;;;;32.75;62.11;100610.41;4999949;28;65384;-35
2022/07/05 04:14:10;;;;;;;6.37;3.80;;;;;;;32.72;61.90;100594.59;5012293;28;69202;-34
2022/07/05 04:16:42;;;;;;;7.78;3.67;;;;;;;32.71;61.89;100582.91;4990252;28;66273;-34
2022/07/05 04:19:13;;;;;;;9.13;4.07;;;;;;;32.79;61.97;100592.56;5015243;28;71745;-35
2022/07/05 04:21:43;;;;;;;6.13;3.42;;;;;;;32.69;62.07;100579.59;4982510;28;65090;-35
2022/07/05 04:24:14;;;;;;;4.78;3.60;;;;;;;32.84;61.81;100603.50;4998082;28;69488;-35
2022/07/05 04:26:45;;;;;;;4.88;3.05;;;;;;;32.84;61.77;100603.50;5002957;28;65939;-35
2022/07/05 04:29:16;;;;;;;6.97;3.87;;;;;;;32.82;62.00;100600.25;5017820;28;70417;-35
2022/07/05 04:31:48;;;;;;;4.95;3.25;;;;;;;32.87;61.74;100602.22;5020383;28;66085;-34
2022/07/05 04:34:19;;;;;;;;;;;;;;;32.56;62.36;100604.28;5034846;28;69500;-34
2022/07/05 04:36:51;;;;;;;6.28;3.92;;;;;;;32.87;61.62;100611.19;5017788;28;67891;-35
2022/07/05 04:39:22;;;;;;;3.85;2.83;;;;;;;32.87;61.67;100632.91;5018412;28;70293;-35
2022/07/05 04:42:01;;;;;;;9.88;3.88;;;;;;;32.86;61.67;100649.47;5012924;28;66295;-35
2022/07/05 04:44:32;;;;;;;6.75;3.13;;;;;;;32.88;61.53;100669.91;5019132;28;70436;-35
2022/07/05 04:47:04;;;;;;;9.13;4.68;;;;;;;32.79;61.82;100663.19;5031184;28;65870;-35
2022/07/05 04:49:35;;;;;;;7.53;4.93;;;;;;;32.86;61.75;100677.47;5031931;28;70473;-35
2022/07/05 04:52:06;;;;;;;10.27;4.40;;;;;;;32.82;61.70;100670.00;5034977;28;65520;-34
2022/07/05 04:54:37;;;;;;;10.05;4.50;;;;;;;32.74;61.81;100651.41;5010618;28;69659;-35
2022/07/05 04:57:09;;;;;;;9.95;4.10;;;;;;;32.81;62.37;100671.91;5023348;28;65871;-35
2022/07/05 04:59:40;;;;;;;5.22;4.15;;;;;;;32.81;62.43;100673.81;5023298;28;69811;-35
2022/07/05 05:02:11;;;;;;;7.82;4.45;;;;;;;32.74;62.64;100656.84;5022321;28;65522;-35
2022/07/05 05:04:42;;;;;;;11.83;4.47;;;;;;;32.71;62.71;100649.97;5022806;28;69403;-35
2022/07/05 05:07:13;;;;;;;5.68;4.13;;;;;;;32.76;62.98;100650.06;5024499;28;66644;-35
2022/07/05 05:09:44;;;;;;;9.03;4.20;;;;;;;32.76;62.72;100644.63;5023904;28;68373;-37
2022/07/05 05:12:16;;;;;;;;;;;;;;;32.42;63.81;100638.97;5039196;28;66080;-35
2022/07/05 05:14:47;;;;;;;9.20;4.25;;;;;;;32.73;63.24;100636.97;5023141;28;69925;-34
2022/07/05 05:17:18;;;;;;;5.68;4.00;;;;;;;32.73;62.88;100623.38;5023079;28;65790;-34
2022/07/05 05:19:49;;;;;;;5.57;4.40;;;;;;;32.63;62.77;100601.47;5036583;28;69868;-35
2022/07/05 05:22:20;;;;;;;8.98;4.65;;;;;;;32.73;63.06;100623.38;5005101;28;65145;-35
2022/07/05 05:24:52;;;;;;;;;;;;;;;32.37;63.85;100622.56;5023786;28;69846;-36
2022/07/05 05:27:23;;;;;;;4.88;4.47;;;;;;;32.66;63.11;100601.81;5017416;28;66727;-35
2022/07/05 05:29:54;;;;;;;5.63;4.57;;;;;;;32.68;63.13;100593.41;5003179;28;70135;-35
2022/07/05 05:32:25;;;;;;;6.53;4.40;;;;;;;32.65;62.97;100588.44;5000130;28;65146;-34
2022/07/05 05:34:56;;;;;;;5.50;3.80;;;;;;;32.69;63.12;100586.91;5002510;28;68629;-34
2022/07/05 05:37:27;;;;;;;5.30;3.80;;;;;;;32.53;63.16;100563.22;5001850;28;66280;-34
2022/07/05 05:39:58;;;;;;;6.75;4.18;;;;;;;32.63;63.21;100574.31;4998408;28;69917;-34
2022/07/05 05:42:30;;;;;;;5.35;3.92;;;;;;;32.56;63.29;100551.88;5000962;28;66093;-34
2022/07/05 05:45:01;;;;;;;6.43;4.13;;;;;;;32.57;63.26;100548.09;5001287;28;69663;-35
2022/07/05 05:47:32;;;;;;;4.90;4.37;;;;;;;32.60;63.35;100550.34;5002122;28;65568;-34
2022/07/05 05:50:04;;;;;;;4.27;3.87;;;;;;;32.63;63.39;100552.56;5000070;28;69728;-35
2022/07/05 05:52:35;;;;;;;5.13;3.67;;;;;;;32.63;63.38;100541.72;5007865;28;65974;-34
2022/07/05 05:55:06;;;;;;;4.70;3.72;;;;;;;32.63;63.58;100536.28;5008270;28;70634;-34
2022/07/05 05:57:37;;;;;;;6.80;3.80;;;;;;;32.62;63.49;100534.63;5001918;28;64924;-34
2022/07/05 06:00:09;;;;;;;4.47;3.75;;;;;;;32.60;63.75;100532.16;5005300;28;69280;-35
2022/07/05 06:02:40;;;;;;;6.13;4.40;;;;;;;32.53;63.48;100519.78;5000965;28;65857;-34
2022/07/05 06:05:11;;;;;;;3.72;3.25;;;;;;;32.61;63.57;100539.22;5002908;28;69766;-34
2022/07/05 06:07:53;;;;;;;6.10;3.77;;;;;;;32.51;63.91;100517.28;5002484;28;65960;-34
2022/07/05 06:10:27;;;;;;;3.83;3.30;;;;;;;32.62;63.61;100523.75;4994650;28;69275;-35
2022/07/05 06:13:01;;;;;;;6.25;3.55;;;;;;;32.24;63.61;100466.22;5000114;28;65676;-36
2022/07/05 06:15:30;;;;;;;5.45;4.00;;;;;;;32.61;63.82;100522.94;4997032;28;69530;-35
2022/07/05 06:18:01;;;;;;;4.90;3.70;;;;;;;32.59;63.67;100518.81;5002790;28;68174;-35
2022/07/05 06:20:36;;;;;;;7.18;3.53;;;;;;;32.11;63.91;100438.53;4998030;28;69048;-37
2022/07/05 06:23:07;;;;;;;8.85;3.85;;;;;;;32.62;63.88;100513.72;5000485;28;66378;-36
2022/07/05 06:25:38;;;;;;;5.20;3.35;;;;;;;32.61;63.92;100512.06;5003360;28;69166;-39
2022/07/05 06:28:09;;;;;;;5.47;4.13;;;;;;;32.64;63.90;100505.34;5020918;28;65603;-35
2022/07/05 06:30:40;;;;;;;7.05;3.88;;;;;;;32.63;64.19;100496.38;5041865;28;70083;-36
2022/07/05 06:33:12;;;;;;;5.32;3.90;;;;;;;32.65;63.93;100496.13;5041780;28;65978;-36
2022/07/05 06:35:42;;;;;;;4.63;4.22;;;;;;;32.66;63.92;100492.34;5038771;28;70004;-35
2022/07/05 06:38:13;;;;;;;6.40;3.17;;;;;;;32.67;63.89;100483.94;5041619;28;66428;-35
2022/07/05 06:40:45;;;;;;;4.57;3.63;;;;;;;32.68;63.84;100477.47;5023550;28;69188;-35
2022/07/05 06:43:15;;;;;;;5.47;3.47;;;;;;;32.68;63.59;100473.91;5034513;28;65189;-35
2022/07/05 06:45:56;;;;;;;4.07;3.63;;;;;;;32.75;63.55;100480.03;5041162;28;69934;-35
2022/07/05 06:48:27;;;;;;;3.90;3.50;;;;;;;32.78;63.68;100474.09;5027355;28;66700;-35
2022/07/05 06:50:58;;;;;;;10.02;3.40;;;;;;;32.84;63.48;100462.25;5041141;28;69435;-35
2022/07/05 06:53:29;;;;;;;6.00;3.00;;;;;;;32.79;63.53;100448.59;5034393;28;67713;-35
2022/07/05 06:56:00;;;;;;;6.68;3.60;;;;;;;32.89;63.56;100456.91;5040228;28;69656;-35
2022/07/05 06:58:31;;;;;;;4.53;3.45;;;;;;;32.90;63.38;100436.84;5023706;28;66190;-35
2022/07/05 07:01:03;;;;;;;5.15;3.53;;;;;;;33.00;63.27;100451.72;5053900;28;69949;-35
2022/07/05 07:03:50;;;;;;;3.45;2.97;;;;;;;33.05;63.35;100440.94;5033356;28;66449;-35
2022/07/05 07:06:41;;;;;;;5.72;3.67;;;;;;;32.95;63.31;100408.94;5036762;28;68950;-35
2022/07/05 07:09:20;;;;;;;7.47;3.30;;;;;;;33.02;63.03;100404.22;5039286;28;66559;-34
2022/07/05 07:11:51;;;;;;;4.15;3.42;;;;;;;33.12;63.11;100409.78;5040298;28;70444;-35
2022/07/05 07:14:22;;;;;;;5.93;3.50;;;;;;;33.15;63.21;100405.75;5035225;28;67324;-35
2022/07/05 07:16:53;;;;;;;5.22;3.00;;;;;;;33.17;63.30;100410.97;5040918;28;69397;-35
2022/07/05 07:19:24;;;;;;;4.63;3.43;;;;;;;33.09;63.29;100388.53;5034189;28;67081;-35
2022/07/05 07:21:55;;;;;;;3.70;3.28;;;;;;;33.20;63.63;100414.00;5040410;28;70190;-35
2022/07/05 07:24:26;;;;;;;4.75;3.05;;;;;;;33.24;63.25;100411.59;5042525;28;65516;-34
2022/07/05 07:27:03;;;;;;;6.05;3.20;;;;;;;33.23;63.63;100405.34;5039500;28;69645;-35
2022/07/05 07:29:36;;;;;;;4.28;3.40;;;;;;;33.27;63.30;100395.63;5041096;28;66550;-35
2022/07/05 07:32:09;;;;;;;4.22;3.55;;;;;;;33.27;63.13;100384.75;5032025;28;70606;-36
2022/07/05 07:34:40;;;;;;;6.05;3.22;;;;;;;33.28;63.55;100394.56;5038888;28;66710;-34
2022/07/05 07:37:13;;;;;;;5.22;3.08;;;;;;;33.27;63.17;100384.75;5041933;28;70329;-34
2022/07/05 07:39:44;;;;;;;5.53;3.75;;;;;;;33.29;63.65;100393.50;5029016;28;66289;-34
2022/07/05 07:42:15;;;;;;;3.30;3.00;;;;;;;33.21;63.30;100380.34;5040985;28;70500;-35
2022/07/05 07:44:46;;;;;;;5.83;3.30;;;;;;;33.25;63.30;100389.63;5036102;28;66371;-35
2022/07/05 07:47:16;;;;;;;4.50;3.70;;;;;;;33.27;63.59;100375.78;5034515;28;69762;-35
2022/07/05 07:49:49;;;;;;;5.00;3.53;;;;;;;33.28;63.65;100375.53;5031728;28;66595;-35
2022/07/05 07:52:21;;;;;;;6.00;3.00;;;;;;;33.15;63.49;100354.13;5041095;28;71398;-34
2022/07/05 07:54:52;;;;;;;6.05;3.38;;;;;;;33.30;63.28;100367.94;5020998;28;65819;-35
2022/07/05 07:57:23;;;;;;;6.93;3.50;;;;;;;33.30;63.57;100361.69;5022406;28;71127;-36
2022/07/05 07:59:54;;;;;;;4.43;3.40;;;;;;;33.32;63.61;100367.69;5026808;28;65991;-36
2022/07/05 08:02:25;;;;;;;5.82;2.95;;;;;;;33.33;63.74;100362.00;5039772;28;69069;-35
2022/07/05 08:04:57;;;;;;;5.57;3.30;;;;;;;33.34;63.43;100360.94;5040852;28;67048;-35
2022/07/05 08:07:28;;;;;;;6.70;3.25;;;;;;;33.35;63.74;100359.88;5038173;28;70025;-37
2022/07/05 08:10:00;;;;;;;8.10;3.65;;;;;;;33.35;63.55;100359.88;5039375;28;65784;-35
2022/07/05 08:12:31;;;;;;;3.75;3.10;;;;;;;33.37;63.38;100357.72;5039618;28;70540;-35
2022/07/05 08:15:03;;;;;;;4.77;3.30;;;;;;;33.40;63.57;100358.28;5040636;28;66733;-36
2022/07/05 08:17:34;;;;;;;6.20;2.97;;;;;;;33.40;63.56;100361.00;5040910;28;69169;-35
2022/07/05 08:22:54;;;;;;;7.90;3.70;;;;;;;33.42;63.36;100356.97;5040042;28;70590;-35
2022/07/05 08:25:25;;;;;;;5.53;3.20;;;;;;;33.42;63.52;100359.69;5037375;28;66158;-35
2022/07/05 08:27:56;;;;;;;4.57;3.33;;;;;;;33.11;63.39;100310.31;5037525;28;69138;-35
2022/07/05 08:30:27;;;;;;;7.40;3.22;;;;;;;33.46;63.24;100362.72;5043258;28;65722;-34
2022/07/05 08:32:58;;;;;;;7.37;3.07;;;;;;;33.43;63.00;100360.50;5035617;28;70132;-34
2022/07/05 08:35:29;;;;;;;3.55;2.97;;;;;;;33.43;63.38;100361.31;5039198;28;65177;-36
2022/07/05 08:38:00;;;;;;;7.68;3.58;;;;;;;33.44;63.25;100362.19;5022598;28;69893;-34
2022/07/05 08:40:38;;;;;;;6.50;3.30;;;;;;;33.01;63.03;100293.03;5039628;28;65698;-34
2022/07/05 08:43:11;;;;;;;4.22;3.20;;;;;;;33.07;63.45;100302.91;5041203;28;70293;-34
2022/07/05 08:45:45;;;;;;;5.07;3.17;;;;;;;33.49;62.61;100360.34;5032277;28;65848;-34
2022/07/05 08:48:17;;;;;;;5.20;3.35;;;;;;;33.42;63.09;100348.81;5031186;28;70223;-34
2022/07/05 08:50:50;;;;;;;3.42;3.05;;;;;;;33.48;63.10;100366.03;5044693;28;65289;-34
2022/07/05 08:53:26;;;;;;;4.53;3.13;;;;;;;33.49;63.04;100365.78;5043595;28;70615;-34
2022/07/05 08:55:59;;;;;;;3.53;2.92;;;;;;;33.40;63.00;100350.13;5039049;28;66677;-34
2022/07/05 08:58:31;;;;;;;4.88;3.00;;;;;;;33.52;62.94;100361.75;5034945;28;70192;-34
2022/07/05 09:01:02;;;;;;;9.48;3.58;;;;;;;33.43;63.32;100352.34;5043641;28;65229;-34
2022/07/05 09:03:53;;;;;;;4.90;3.80;;;;;;;33.38;63.14;100358.56;5035910;28;69883;-35
2022/07/05 09:06:26;;;;;;;4.47;3.10;;;;;;;33.51;63.17;100357.38;5038562;28;66320;-34
2022/07/05 09:08:59;;;;;;;3.50;2.97;;;;;;;33.42;63.22;100348.00;5038510;28;69133;-34
2022/07/05 09:11:38;;;;;;;4.80;3.33;;;;;;;33.08;62.91;100301.84;5040926;28;65902;-34
2022/07/05 09:14:24;;;;;;;7.05;3.58;;;;;;;33.44;62.70;100379.31;5042726;28;70508;-34
2022/07/05 09:16:57;;;;;;;3.78;3.10;;;;;;;33.53;62.90;100385.16;5043927;28;66226;-35
2022/07/05 09:19:30;;;;;;;7.57;3.90;;;;;;;33.53;62.96;100383.25;5038151;28;69583;-34
2022/07/05 09:22:05;;;;;;;3.60;3.05;;;;;;;33.57;62.63;100380.84;5038376;28;65600;-35
2022/07/05 09:24:46;;;;;;;4.93;3.17;;;;;;;33.53;62.69;100382.44;5038544;28;70102;-35
2022/07/05 09:27:17;;;;;;;4.72;2.65;;;;;;;33.54;63.05;100384.09;5038674;28;65460;-35
2022/07/05 09:29:57;;;;;;;4.82;2.75;;;;;;;33.52;62.68;100380.78;5037699;28;70585;-34
2022/07/05 09:32:31;;;;;;;4.15;3.05;;;;;;;33.55;62.51;100377.59;5037621;28;64836;-35
2022/07/05 09:35:19;;;;;;;3.28;2.83;;;;;;;33.41;62.82;100362.69;5038126;28;70457;-35
2022/07/05 09:37:51;;;;;;;8.95;3.45;;;;;;;33.58;62.78;100368.94;5035627;28;65491;-35
2022/07/05 09:40:22;;;;;;;5.38;3.83;;;;;;;33.58;62.78;100368.94;5037764;28;69297;-36
2022/07/05 09:43:09;;;;;;;6.13;3.83;;;;;;;33.53;62.70;100366.13;5041125;28;66343;-35
2022/07/05 09:45:50;;;;;;;6.20;3.15;;;;;;;33.55;62.65;100364.81;5037876;28;69871;-35
2022/07/05 09:48:21;;;;;;;3.50;3.17;;;;;;;33.58;62.93;100377.09;5041496;28;66849;-35
2022/07/05 09:51:07;;;;;;;5.05;3.38;;;;;;;33.47;62.57;100351.63;5039861;28;70164;-35
2022/07/05 09:54:00;;;;;;;5.63;3.28;;;;;;;33.61;62.61;100365.69;5043340;28;65350;-35
2022/07/05 09:56:44;;;;;;;6.50;3.47;;;;;;;33.14;62.68;100293.50;5042588;28;69612;-35
2022/07/05 09:59:20;;;;;;;4.88;3.97;;;;;;;33.55;62.27;100358.56;5045566;28;65345;-37
2022/07/05 10:01:52;;;;;;;7.40;3.70;;;;;;;33.61;62.56;100362.16;5032026;28;70413;-34
2022/07/05 10:04:23;;;;;;;4.55;3.00;;;;;;;33.61;62.59;100371.16;5052052;28;65485;-35
2022/07/05 10:06:54;;;;;;;6.20;3.17;;;;;;;33.59;62.32;100370.56;5041875;28;70285;-34
2022/07/05 10:09:26;;;;;;;6.93;3.17;;;;;;;33.62;62.70;100371.97;5040824;28;65323;-35
2022/07/05 10:11:57;;;;;;;4.25;3.45;;;;;;;33.61;62.50;100379.31;5038848;28;69132;-34
2022/07/05 10:14:28;;;;;;;3.93;3.27;;;;;;;33.60;62.61;100372.22;5046597;28;66375;-34
2022/07/05 10:17:03;;;;;;;5.50;3.83;;;;;;;33.60;62.58;100383.09;5047674;28;70027;-34
2022/07/05 10:19:41;;;;;;;4.07;3.28;;;;;;;33.20;62.22;100316.16;5040794;28;66113;-35
2022/07/05 10:22:13;;;;;;;3.58;3.20;;;;;;;33.62;62.35;100380.94;5054104;28;70436;-35
2022/07/05 10:24:47;;;;;;;5.50;3.55;;;;;;;33.61;62.29;100383.91;5041535;28;65702;-34
2022/07/05 10:27:20;;;;;;;3.95;3.55;;;;;;;33.59;62.33;100381.44;5028236;28;70317;-34
2022/07/05 10:29:52;;;;;;;3.88;3.47;;;;;;;33.60;62.26;100388.53;5040488;28;66651;-35
2022/07/05 10:32:24;;;;;;;5.72;3.95;;;;;;;33.60;62.23;100393.97;5038477;28;70097;-35
2022/07/05 10:34:58;;;;;;;8.07;4.22;;;;;;;33.53;63.11;100382.44;5041174;28;65706;-35
2022/07/05 10:37:31;;;;;;;5.18;4.10;;;;;;;33.09;62.88;100314.34;5040417;28;69963;-35
2022/07/05 10:40:05;;;;;;;5.93;4.10;;;;;;;33.60;62.94;100391.25;5041133;28;66226;-35
2022/07/05 10:42:49;;;;;;;5.47;4.22;;;;;;;33.37;64.36;100393.06;5036133;28;69368;-34
2022/07/05 10:45:33;;;;;;;9.00;5.05;;;;;;;33.25;65.03;100400.50;5040697;28;66259;-35
2022/07/05 10:48:10;;;;;;;10.90;5.10;;;;;;;33.15;65.10;100398.44;5040345;28;70722;-36
2022/07/05 10:50:52;;;;;;;5.82;5.25;;;;;;;32.54;65.39;100310.47;5021282;28;66059;-35
2022/07/05 10:53:26;;;;;;;8.45;6.07;;;;;;;33.03;66.13;100394.97;5040278;28;69802;-34
2022/07/05 10:56:03;;;;;;;10.85;5.85;;;;;;;33.08;65.87;100386.91;5036183;28;66089;-34
2022/07/05 10:58:36;;;;;;;6.97;5.82;;;;;;;32.76;65.21;100324.13;5023313;28;69284;-35
2022/07/05 11:01:16;;;;;;;8.45;6.05;;;;;;;33.22;65.17;100384.69;5042838;28;65663;-35
2022/07/05 11:04:04;;;;;;;6.68;5.35;;;;;;;33.26;65.12;100383.09;5041026;28;69251;-35
2022/07/05 11:06:38;;;;;;;13.13;6.28;;;;;;;33.31;65.11;100380.47;5026551;28;65397;-34
2022/07/05 11:09:13;;;;;;;10.43;5.97;;;;;;;33.35;64.67;100380.81;5009162;28;70593;-35
2022/07/05 11:12:02;;;;;;;7.22;6.47;;;;;;;33.20;64.70;100373.22;5037546;28;65690;-34
2022/07/05 11:14:53;;;;;;;6.05;5.53;;;;;;;33.37;64.71;100365.88;5035562;28;69031;-35
2022/07/05 11:17:29;;;;;;;7.87;5.93;;;;;;;33.24;65.14;100363.53;5038694;28;66343;-35
2022/07/05 11:20:28;;;;;;;10.23;6.18;;;;;;;32.32;65.91;100234.34;5036341;28;70793;-35
2022/07/05 11:23:11;;;;;;;6.78;6.18;;;;;;;33.01;67.37;100369.94;5037344;28;65465;-34
2022/07/05 11:25:48;;;;;;;9.35;6.38;;;;;;;33.01;67.45;100379.97;5020167;28;70452;-34
2022/07/05 11:28:24;;;;;;;6.45;5.68;;;;;;;32.84;67.40;100364.47;5037145;28;65351;-35
2022/07/05 11:31:00;;;;;;;7.60;6.53;;;;;;;32.90;67.71;100390.66;5037039;28;70445;-34
2022/07/05 11:33:33;;;;;;;7.15;6.50;;;;;;;31.93;67.96;100234.19;5041174;28;65688;-34
2022/07/05 11:36:07;;;;;;;7.05;6.35;;;;;;;32.87;68.04;100396.56;5045892;28;69914;-34
2022/07/05 11:39:12;;;;;;;9.43;6.50;;;;;;;32.76;68.34;100400.19;5032216;28;66688;-35
2022/07/05 11:41:45;;;;;;;7.68;6.90;;;;;;;32.83;68.54;100400.84;5032639;28;69872;-34
2022/07/05 11:44:17;;;;;;;7.78;6.43;;;;;;;32.83;68.61;100400.84;5042030;28;65120;-34
2022/07/05 11:46:49;;;;;;;7.07;6.38;;;;;;;32.74;68.44;100396.91;5039956;28;69711;-35
2022/07/05 11:49:22;;;;;;;8.27;7.03;;;;;;;32.63;68.82;100374.16;5035724;28;66856;-37
2022/07/05 11:51:55;;;;;;;15.07;6.53;;;;;;;32.72;68.93;100388.16;5038700;28;69284;-34
2022/07/05 11:54:32;;;;;;;9.75;7.45;;;;;;;32.70;69.35;100384.88;5037098;28;65580;-34